Time;durP1;ratioP1;P1;durP2;ratioP2;P2;SDS_P1;SDS_P2;PMS_P1;PMS_P2;Temp;Humidity;BMP_temperature;BMP_pressure;BME280_temperature;BME280_humidity;BME280_pressure;Samples;Min_cycle;Max_cycle;Signal;HPM_P1;HPM_P2
2021/04/20 00:00:19;;;;;;;38.78;25.00;;;7.40;99.90;;;;;;5130691;28;20040;-90
2021/04/20 00:02:45;;;;;;;36.88;25.15;;;7.40;99.90;;;;;;5130849;28;20044;-89
2021/04/20 00:05:16;;;;;;;38.95;25.90;;;7.40;99.90;;;;;;5130348;28;20040;-89
2021/04/20 00:07:43;;;;;;;37.65;25.33;;;7.40;99.90;;;;;;5147591;28;20040;-90
2021/04/20 00:10:13;;;;;;;39.83;26.45;;;7.50;99.90;;;;;;5113490;28;20036;-90
2021/04/20 00:12:41;;;;;;;36.05;24.30;;;7.50;99.90;;;;;;5147654;28;20093;-90
2021/04/20 00:15:17;;;;;;;37.55;24.67;;;7.50;99.90;;;;;;5130758;28;20111;-90
2021/04/20 00:17:44;;;;;;;37.83;25.85;;;7.50;99.90;;;;;;5147570;28;20510;-90
2021/04/20 00:20:13;;;;;;;41.35;25.80;;;7.50;99.90;;;;;;5129912;28;20111;-89
2021/04/20 00:22:40;;;;;;;40.03;26.45;;;7.50;99.90;;;;;;5130706;28;20464;-89
2021/04/20 00:25:07;;;;;;;38.20;26.45;;;7.60;99.90;;;;;;5130204;28;20091;-90
2021/04/20 00:27:34;;;;;;;39.85;26.65;;;7.50;99.90;;;;;;5129921;28;20043;-90
2021/04/20 00:30:02;;;;;;;38.53;26.30;;;7.50;99.90;;;;;;5130216;28;20094;-90
2021/04/20 00:32:29;;;;;;;40.45;26.80;;;7.50;99.90;;;;;;5130024;28;20036;-89
2021/04/20 00:34:56;;;;;;;41.58;25.65;;;7.40;99.90;;;;;;5113462;28;20476;-89
2021/04/20 00:37:22;;;;;;;39.30;27.40;;;7.50;99.90;;;;;;5113011;28;20062;-90
2021/04/20 00:39:49;;;;;;;39.80;27.00;;;7.40;99.90;;;;;;5113017;28;20036;-89
2021/04/20 00:42:16;;;;;;;45.80;29.55;;;7.40;99.90;;;;;;5146515;28;20052;-89
2021/04/20 00:44:43;;;;;;;44.38;29.38;;;7.60;99.90;;;;;;5129941;28;20123;-89
2021/04/20 00:47:10;;;;;;;45.88;27.40;;;7.50;99.90;;;;;;5130095;28;20036;-90
2021/04/20 00:49:37;;;;;;;38.50;26.35;;;7.50;99.90;;;;;;5129590;28;20043;-89
2021/04/20 00:52:04;;;;;;;39.67;26.17;;;7.60;99.90;;;;;;5130026;28;20036;-89
2021/04/20 00:54:31;;;;;;;41.63;27.25;;;7.60;99.90;;;;;;5129476;28;20039;-90
2021/04/20 00:56:58;;;;;;;40.78;28.10;;;7.60;99.90;;;;;;5129875;28;20027;-89
2021/04/20 00:59:25;;;;;;;45.58;28.52;;;7.50;99.90;;;;;;5095885;28;20048;-89
2021/04/20 01:01:52;;;;;;;43.58;28.05;;;7.60;99.90;;;;;;5129495;28;20040;-89
2021/04/20 01:04:20;;;;;;;44.65;29.15;;;8.00;99.90;;;;;;5112532;28;20391;-89
2021/04/20 01:06:48;;;;;;;42.38;28.63;;;7.70;99.90;;;;;;5146682;28;20040;-89
2021/04/20 01:09:17;;;;;;;42.75;28.10;;;7.70;99.90;;;;;;5145891;28;20044;-86
2021/04/20 01:11:47;;;;;;;48.50;29.52;;;7.70;99.90;;;;;;5129590;28;20051;-89
2021/04/20 01:14:14;;;;;;;45.17;29.17;;;7.80;99.90;;;;;;5146270;28;20189;-89
2021/04/20 01:16:41;;;;;;;47.45;30.42;;;7.70;99.90;;;;;;5145924;28;20048;-89
2021/04/20 01:19:12;;;;;;;43.80;29.55;;;7.70;99.90;;;;;;5112608;28;20040;-89
2021/04/20 01:21:42;;;;;;;44.58;29.50;;;7.80;99.90;;;;;;5145850;28;20055;-89
2021/04/20 01:24:08;;;;;;;43.10;29.00;;;7.70;99.90;;;;;;5129088;28;20043;-88
2021/04/20 01:26:39;;;;;;;45.88;29.30;;;7.80;99.90;;;;;;5128512;28;20043;-89
2021/04/20 01:29:06;;;;;;;42.83;28.38;;;7.70;99.90;;;;;;5146008;28;20054;-89
2021/04/20 01:31:35;;;;;;;41.30;28.30;;;7.80;99.90;;;;;;5145649;28;20036;-89
2021/04/20 01:34:04;;;;;;;44.58;28.95;;;7.80;99.90;;;;;;5146168;28;20038;-90
2021/04/20 01:36:31;;;;;;;45.10;29.38;;;7.80;99.90;;;;;;5128973;28;20040;-89
2021/04/20 01:38:59;;;;;;;46.25;30.20;;;7.70;99.90;;;;;;5146120;28;20047;-89
2021/04/20 01:41:28;;;;;;;43.78;28.63;;;7.70;99.90;;;;;;5111545;28;20036;-89
2021/04/20 01:43:57;;;;;;;44.67;28.90;;;7.70;99.90;;;;;;5128749;28;20412;-88
2021/04/20 01:46:24;;;;;;;43.13;29.63;;;7.70;99.90;;;;;;5145535;28;20113;-90
2021/04/20 01:48:51;;;;;;;49.03;29.40;;;7.80;99.90;;;;;;5145705;28;20043;-90
2021/04/20 01:51:20;;;;;;;46.03;30.80;;;7.90;99.90;;;;;;5111952;28;20039;-90
2021/04/20 01:53:48;;;;;;;43.78;29.55;;;8.10;99.90;;;;;;5128693;28;20054;-90
2021/04/20 01:56:15;;;;;;;39.60;28.25;;;8.00;99.90;;;;;;5128658;28;20415;-89
2021/04/20 01:58:44;;;;;;;45.65;29.80;;;7.90;99.90;;;;;;5128262;28;20040;-90
2021/04/20 02:01:14;;;;;;;42.28;27.83;;;8.10;99.90;;;;;;5129508;28;20118;-90
2021/04/20 02:03:46;;;;;;;43.15;27.63;;;7.90;99.90;;;;;;5145074;28;20056;-90
2021/04/20 02:06:15;;;;;;;39.80;26.60;;;8.20;99.90;;;;;;5145326;28;20047;-89
2021/04/20 02:08:43;;;;;;;41.45;28.85;;;7.90;99.90;;;;;;5144877;28;20115;-89
2021/04/20 02:11:13;;;;;;;42.03;27.13;;;8.00;99.90;;;;;;5143660;28;20040;-89
2021/04/20 02:13:40;;;;;;;40.25;27.55;;;8.00;99.90;;;;;;5148716;28;20035;-90
2021/04/20 02:16:08;;;;;;;39.80;27.35;;;8.00;99.90;;;;;;5128187;28;20475;-90
2021/04/20 02:18:46;;;;;;;36.65;25.67;;;8.00;99.90;;;;;;5148152;28;20457;-90
2021/04/20 02:21:14;;;;;;;42.75;26.95;;;8.00;99.90;;;;;;5145708;28;20048;-90
2021/04/20 02:23:42;;;;;;;38.70;27.52;;;8.00;99.90;;;;;;5135230;28;20085;-90
2021/04/20 02:26:16;;;;;;;38.95;26.33;;;8.00;99.90;;;;;;5094580;28;20048;-89
2021/04/20 02:28:43;;;;;;;39.28;27.95;;;8.00;99.90;;;;;;5140895;28;20047;-90
2021/04/20 02:31:10;;;;;;;37.67;26.50;;;8.00;99.90;;;;;;5130719;28;20039;-89
2021/04/20 02:33:38;;;;;;;37.22;26.38;;;8.30;99.90;;;;;;5121302;28;20119;-89
2021/04/20 02:36:05;;;;;;;41.22;27.13;;;8.10;99.90;;;;;;5127954;28;20051;-89
2021/04/20 02:38:32;;;;;;;39.53;27.15;;;8.00;99.90;;;;;;5127489;28;20127;-88
2021/04/20 02:41:01;;;;;;;42.40;26.88;;;8.10;99.90;;;;;;5127920;28;20088;-89
2021/04/20 02:43:29;;;;;;;37.85;26.02;;;8.00;99.90;;;;;;5127380;28;20498;-88
2021/04/20 02:46:00;;;;;;;44.45;26.85;;;8.10;99.90;;;;;;5111104;28;20043;-89
2021/04/20 02:48:29;;;;;;;40.72;25.63;;;8.00;99.90;;;;;;5111476;28;20032;-90
2021/04/20 02:50:57;;;;;;;39.55;26.40;;;8.10;99.90;;;;;;5111419;28;20051;-89
2021/04/20 02:53:25;;;;;;;37.97;26.08;;;8.00;99.90;;;;;;5094972;28;20089;-90
2021/04/20 02:55:52;;;;;;;38.60;25.05;;;8.00;99.90;;;;;;5110992;28;20036;-90
2021/04/20 02:58:22;;;;;;;35.63;25.83;;;8.10;99.90;;;;;;5127941;28;20397;-89
2021/04/20 03:01:05;;;;;;;42.65;26.92;;;8.00;99.90;;;;;;5127782;28;20050;-90
2021/04/20 03:03:40;;;;;;;38.13;24.90;;;8.00;99.90;;;;;;5127311;28;20070;-89
2021/04/20 03:06:07;;;;;;;38.70;26.08;;;7.90;99.90;;;;;;5111357;28;20054;-90
2021/04/20 03:08:35;;;;;;;41.88;26.48;;;7.90;99.90;;;;;;5111348;28;20036;-88
2021/04/20 03:11:09;;;;;;;36.03;25.80;;;7.80;99.90;;;;;;5111547;28;20089;-89
2021/04/20 03:13:36;;;;;;;37.05;25.95;;;7.80;99.90;;;;;;5127391;28;20038;-88
2021/04/20 03:16:08;;;;;;;37.25;25.23;;;7.70;99.90;;;;;;5095159;28;20036;-89
2021/04/20 03:18:35;;;;;;;35.17;24.23;;;7.60;99.90;;;;;;5127962;28;20036;-88
2021/04/20 03:21:04;;;;;;;36.88;24.40;;;7.60;99.90;;;;;;5128383;28;20551;-89
2021/04/20 03:23:33;;;;;;;34.20;24.27;;;7.50;99.90;;;;;;5127842;28;20543;-88
2021/04/20 03:26:02;;;;;;;36.60;25.42;;;7.50;99.90;;;;;;5094961;28;20044;-88
2021/04/20 03:28:29;;;;;;;40.38;24.10;;;7.40;99.90;;;;;;5111727;28;20040;-88
2021/04/20 03:30:59;;;;;;;38.00;24.80;;;7.40;99.90;;;;;;5110920;28;20472;-89
2021/04/20 03:33:36;;;;;;;33.15;23.42;;;7.30;99.90;;;;;;5111738;28;20029;-89
2021/04/20 03:36:12;;;;;;;38.08;24.20;;;7.30;99.90;;;;;;5111250;28;20067;-89
2021/04/20 03:38:43;;;;;;;;;;;7.20;99.90;;;;;;5127859;28;20028;-89
2021/04/20 03:41:30;;;;;;;35.42;23.92;;;7.50;99.90;;;;;;5111092;28;19916;-89
2021/04/20 03:43:59;;;;;;;37.30;26.33;;;7.10;99.90;;;;;;5127668;28;20074;-89
2021/04/20 03:46:31;;;;;;;35.22;23.95;;;7.10;99.90;;;;;;5113684;28;20032;-89
2021/04/20 03:49:04;;;;;;;40.33;24.95;;;7.00;99.90;;;;;;5131235;28;20404;-89
2021/04/20 03:51:32;;;;;;;43.60;26.63;;;6.90;99.90;;;;;;5131521;28;20040;-89
2021/04/20 03:54:07;;;;;;;33.60;24.80;;;6.90;99.90;;;;;;5114363;28;20036;-90
2021/04/20 03:56:35;;;;;;;36.00;26.33;;;6.80;99.90;;;;;;5115065;28;20473;-89
2021/04/20 03:59:05;;;;;;;37.22;25.95;;;7.20;99.90;;;;;;5131728;28;20084;-89
2021/04/20 04:01:45;;;;;;;39.10;26.33;;;6.70;99.90;;;;;;5131670;28;20043;-89
2021/04/20 04:04:24;;;;;;;37.78;24.77;;;6.70;99.90;;;;;;5132188;28;20498;-90
2021/04/20 04:06:53;;;;;;;36.83;26.15;;;6.60;99.90;;;;;;5130876;28;20032;-89
2021/04/20 04:09:20;;;;;;;41.55;28.00;;;6.60;99.90;;;;;;5097767;28;20036;-89
2021/04/20 04:11:54;;;;;;;39.03;26.30;;;6.60;99.90;;;;;;5114125;28;20120;-89
2021/04/20 04:14:27;;;;;;;40.38;26.13;;;6.50;99.90;;;;;;5131262;28;20087;-89
2021/04/20 04:16:59;;;;;;;39.13;27.52;;;6.50;99.90;;;;;;5130544;28;20039;-89
2021/04/20 04:19:36;;;;;;;36.05;26.13;;;6.40;99.90;;;;;;5114561;28;20035;-89
2021/04/20 04:22:06;;;;;;;37.92;25.92;;;6.50;99.90;;;;;;5130590;28;20392;-89
2021/04/20 04:24:40;;;;;;;37.45;25.40;;;6.30;99.90;;;;;;5130695;28;20036;-89
2021/04/20 04:27:08;;;;;;;38.40;26.30;;;6.40;99.90;;;;;;5130605;28;20040;-89
2021/04/20 04:29:38;;;;;;;39.28;25.27;;;6.30;99.90;;;;;;5113895;28;20040;-90
2021/04/20 04:32:06;;;;;;;38.38;26.98;;;6.40;99.90;;;;;;5113992;28;20044;-90
2021/04/20 04:34:34;;;;;;;38.60;25.13;;;6.30;99.90;;;;;;5130945;28;20399;-89
2021/04/20 04:37:02;;;;;;;37.50;26.65;;;6.40;99.90;;;;;;5129958;28;20032;-88
2021/04/20 04:39:29;;;;;;;34.45;24.38;;;6.20;99.90;;;;;;5113739;28;20055;-89
2021/04/20 04:41:56;;;;;;;34.22;24.02;;;6.30;99.90;;;;;;5113213;28;20088;-90
2021/04/20 04:44:23;;;;;;;35.30;23.63;;;6.60;99.90;;;;;;5130648;28;20040;-90
2021/04/20 04:46:50;;;;;;;35.58;24.48;;;6.30;99.90;;;;;;5130329;28;20138;-90
2021/04/20 04:49:18;;;;;;;33.50;23.85;;;6.50;99.90;;;;;;5097165;28;20146;-90
2021/04/20 04:51:48;;;;;;;37.15;23.80;;;6.20;99.90;;;;;;5096772;28;20046;-89
2021/04/20 04:54:18;;;;;;;34.72;23.50;;;6.20;99.90;;;;;;5130389;28;20499;-90
2021/04/20 04:56:45;;;;;;;41.42;24.02;;;6.20;99.90;;;;;;5112517;28;20040;-90
2021/04/20 04:59:18;;;;;;;36.10;23.88;;;6.40;99.90;;;;;;5113320;28;20454;-89
2021/04/20 05:01:46;;;;;;;31.77;23.02;;;6.20;99.90;;;;;;5129670;28;20432;-90
2021/04/20 05:04:13;;;;;;;36.08;24.02;;;6.20;99.90;;;;;;5097021;28;20476;-90
2021/04/20 05:06:48;;;;;;;34.83;23.25;;;6.20;99.90;;;;;;5113521;28;20066;-89
2021/04/20 05:09:20;;;;;;;35.30;23.67;;;6.10;99.90;;;;;;5129906;28;20062;-89
2021/04/20 05:11:48;;;;;;;32.90;23.25;;;6.20;99.90;;;;;;5112902;28;20044;-90
2021/04/20 05:14:17;;;;;;;35.67;24.70;;;6.30;99.90;;;;;;5129830;28;20044;-89
2021/04/20 05:16:50;;;;;;;32.13;22.83;;;6.20;99.90;;;;;;5130739;28;20028;-88
2021/04/20 05:19:34;;;;;;;32.55;23.38;;;6.20;99.90;;;;;;5130348;28;20043;-90
2021/04/20 05:22:01;;;;;;;32.78;22.65;;;6.20;99.90;;;;;;5129739;28;20039;-89
2021/04/20 05:24:29;;;;;;;33.45;22.67;;;6.30;99.90;;;;;;5096499;28;20040;-90
2021/04/20 05:26:57;;;;;;;34.45;22.58;;;6.30;99.90;;;;;;5112318;28;20409;-89
2021/04/20 05:29:24;;;;;;;34.35;21.50;;;6.40;99.90;;;;;;5095902;28;20093;-90
2021/04/20 05:31:51;;;;;;;31.08;22.25;;;6.70;99.90;;;;;;5079422;28;20077;-89
2021/04/20 05:34:20;;;;;;;28.30;19.75;;;6.50;99.90;;;;;;5112659;28;20036;-90
2021/04/20 05:36:48;;;;;;;28.88;20.95;;;6.50;99.90;;;;;;5112529;28;20054;-88
2021/04/20 05:39:17;;;;;;;34.30;20.40;;;6.50;99.90;;;;;;5129851;28;20093;-89
2021/04/20 05:41:43;;;;;;;30.40;19.88;;;6.60;99.90;;;;;;5129369;28;20043;-89
2021/04/20 05:44:12;;;;;;;32.28;19.42;;;6.70;99.90;;;;;;5095804;28;20040;-89
2021/04/20 05:46:48;;;;;;;27.15;18.88;;;6.60;99.90;;;;;;5112616;28;20040;-90
2021/04/20 05:49:17;;;;;;;26.10;18.53;;;7.10;99.90;;;;;;5129695;28;20446;-89
2021/04/20 05:51:44;;;;;;;28.05;19.60;;;6.80;99.90;;;;;;5112780;28;20040;-89
2021/04/20 05:54:11;;;;;;;26.60;17.42;;;6.80;99.90;;;;;;5112243;28;20035;-89
2021/04/20 05:56:38;;;;;;;29.83;18.30;;;7.20;99.90;;;;;;5120474;28;20487;-89
2021/04/20 05:59:06;;;;;;;26.65;16.95;;;7.20;99.90;;;;;;5112843;28;20040;-88
2021/04/20 06:01:43;;;;;;;23.45;16.77;;;7.00;99.90;;;;;;5113033;28;20052;-89
2021/04/20 06:04:11;;;;;;;25.08;16.30;;;7.10;99.90;;;;;;5128779;28;20465;-89
2021/04/20 06:06:40;;;;;;;23.88;16.85;;;7.10;99.90;;;;;;5112431;28;20036;-89
2021/04/20 06:09:08;;;;;;;25.83;16.77;;;7.20;99.90;;;;;;5111631;28;20032;-89
2021/04/20 06:11:37;;;;;;;23.75;16.67;;;7.20;99.90;;;;;;5112246;28;20044;-89
2021/04/20 06:14:04;;;;;;;26.25;16.33;;;7.30;99.90;;;;;;5128591;28;20465;-91
2021/04/20 06:16:31;;;;;;;22.23;15.63;;;7.30;99.90;;;;;;5132753;28;20058;-89
2021/04/20 06:18:58;;;;;;;23.52;16.95;;;7.50;99.90;;;;;;5132114;28;20040;-89
2021/04/20 06:21:27;;;;;;;23.23;14.65;;;7.40;99.90;;;;;;5131907;28;20039;-88
2021/04/20 06:23:55;;;;;;;24.20;15.40;;;7.50;99.90;;;;;;5132025;28;20463;-88
2021/04/20 06:26:24;;;;;;;21.27;14.98;;;7.60;99.90;;;;;;5108276;28;20059;-88
2021/04/20 06:28:52;;;;;;;22.38;15.30;;;7.60;99.90;;;;;;5131598;28;20055;-88
2021/04/20 06:31:20;;;;;;;24.67;14.82;;;7.60;99.90;;;;;;5115593;28;20399;-90
2021/04/20 06:33:48;;;;;;;22.33;14.05;;;7.70;99.90;;;;;;5128735;28;20028;-89
2021/04/20 06:36:16;;;;;;;22.77;13.05;;;7.80;99.90;;;;;;5119569;28;20381;-89
2021/04/20 06:38:43;;;;;;;20.88;14.15;;;8.00;99.90;;;;;;5139743;28;20047;-88
2021/04/20 06:41:11;;;;;;;18.60;13.05;;;8.30;99.90;;;;;;5114299;28;20055;-89
2021/04/20 06:44:28;;;;;;;21.17;13.27;;;7.90;99.90;;;;;;5111845;28;20032;-90
2021/04/20 06:47:16;;;;;;;21.60;11.82;;;8.00;99.90;;;;;;5125179;28;20515;-89
2021/04/20 06:50:05;;;;;;;16.13;11.23;;;8.10;99.90;;;;;;5128588;28;20392;-89
2021/04/20 06:52:43;;;;;;;17.83;11.02;;;8.20;99.90;;;;;;5128158;28;20107;-90
2021/04/20 06:55:14;;;;;;;17.67;10.77;;;8.30;99.90;;;;;;5128034;28;20051;-87
2021/04/20 06:58:06;;;;;;;18.17;11.00;;;8.40;99.90;;;;;;5129683;28;20051;-93
2021/04/20 07:00:46;;;;;;;16.30;10.13;;;8.40;99.90;;;;;;5133170;28;20048;-91
2021/04/20 07:03:28;;;;;;;16.40;10.27;;;8.60;99.90;;;;;;5149271;28;20380;-89
2021/04/20 07:06:07;;;;;;;15.88;10.77;;;8.70;99.90;;;;;;5132530;28;20040;-90
2021/04/20 07:08:46;;;;;;;15.50;10.23;;;8.80;99.90;;;;;;5136010;28;20071;-86
2021/04/20 07:11:14;;;;;;;13.65;9.63;;;9.10;99.90;;;;;;5131468;28;20392;-87
2021/04/20 07:13:45;;;;;;;17.88;10.15;;;9.10;99.90;;;;;;5112866;28;20038;-85
2021/04/20 07:16:23;;;;;;;16.33;9.65;;;9.20;99.90;;;;;;5126514;28;20074;-86
2021/04/20 07:19:20;;;;;;;15.55;9.70;;;9.30;99.90;;;;;;5140449;28;20047;-87
2021/04/20 07:22:08;;;;;;;17.15;9.23;;;9.40;99.90;;;;;;5144016;28;20077;-88
2021/04/20 07:24:41;;;;;;;15.10;8.70;;;9.50;99.90;;;;;;5152440;28;20062;-86
2021/04/20 07:27:52;;;;;;;16.35;9.63;;;9.60;99.90;;;;;;5151443;28;20067;-86
2021/04/20 07:30:30;;;;;;;13.90;8.10;;;9.70;99.90;;;;;;5144810;28;20050;-86
2021/04/20 07:33:18;;;;;;;13.75;9.25;;;9.80;99.90;;;;;;5131060;28;20032;-87
2021/04/20 07:36:09;;;;;;;13.52;9.45;;;9.90;99.90;;;;;;5134806;28;20032;-86
2021/04/20 07:39:07;;;;;;;16.67;8.88;;;10.00;99.90;;;;;;5122044;28;20052;-87
2021/04/20 07:41:45;;;;;;;15.48;10.27;;;10.00;99.90;;;;;;5134055;28;20036;-86
2021/04/20 07:44:33;;;;;;;14.70;8.90;;;10.10;99.90;;;;;;5133067;28;20415;-86
2021/04/20 07:47:10;;;;;;;15.77;9.18;;;10.10;99.90;;;;;;5131152;28;20040;-87
2021/04/20 07:50:04;;;;;;;15.82;9.20;;;10.20;99.90;;;;;;5113985;28;20040;-86
2021/04/20 07:52:58;;;;;;;13.55;8.57;;;10.30;99.90;;;;;;5131575;28;20517;-87
2021/04/20 07:55:32;;;;;;;12.80;8.50;;;10.50;99.90;;;;;;5131195;28;20786;-87
2021/04/20 07:58:07;;;;;;;15.88;9.25;;;10.60;99.90;;;;;;5156784;27;20033;-85
2021/04/20 08:01:06;;;;;;;15.75;9.23;;;10.70;99.90;;;;;;5131058;28;20035;-87
2021/04/20 08:03:50;;;;;;;14.32;9.15;;;10.90;99.90;;;;;;5141583;28;20036;-87
2021/04/20 08:06:28;;;;;;;14.15;9.38;;;11.00;99.90;;;;;;5137214;28;20036;-86
2021/04/20 08:09:01;;;;;;;15.50;9.55;;;11.10;99.90;;;;;;5152544;28;20497;-85
2021/04/20 08:11:48;;;;;;;15.60;8.77;;;11.30;99.90;;;;;;5151084;28;20519;-85
2021/04/20 08:14:27;;;;;;;13.05;8.60;;;11.40;99.90;;;;;;5135660;28;20036;-85
2021/04/20 08:16:58;;;;;;;13.32;8.30;;;11.50;99.90;;;;;;5130696;28;20024;-86
2021/04/20 08:19:42;;;;;;;15.45;8.63;;;11.50;99.90;;;;;;5130044;28;20044;-87
2021/04/20 08:22:12;;;;;;;14.43;9.25;;;11.60;99.90;;;;;;5129745;28;20028;-85
2021/04/20 08:24:59;;;;;;;12.98;9.30;;;11.60;99.90;;;;;;5131041;28;20044;-83
2021/04/20 08:27:41;;;;;;;12.27;8.13;;;11.70;99.90;;;;;;5129461;28;20047;-86
2021/04/20 08:30:21;;;;;;;13.18;8.38;;;11.80;99.90;;;;;;5129612;28;20369;-85
2021/04/20 08:32:52;;;;;;;14.50;8.77;;;11.90;99.70;;;;;;5128461;28;20468;-85
2021/04/20 08:35:29;;;;;;;14.10;9.52;;;12.00;99.30;;;;;;5129287;28;20119;-85
2021/04/20 08:38:26;;;;;;;14.25;9.13;;;12.10;99.90;;;;;;5129501;28;20036;-85
2021/04/20 08:41:24;;;;;;;15.85;10.52;;;12.20;99.90;;;;;;5129367;28;20042;-85
2021/04/20 08:44:09;;;;;;;15.13;9.23;;;12.30;98.80;;;;;;5129536;28;20036;-85
2021/04/20 08:47:11;;;;;;;21.25;9.02;;;12.40;99.10;;;;;;5129429;28;20036;-85
2021/04/20 08:50:05;;;;;;;15.88;9.23;;;12.50;99.00;;;;;;5129292;28;20396;-85
2021/04/20 08:52:32;;;;;;;16.35;9.40;;;12.60;98.10;;;;;;5130282;28;20040;-85
2021/04/20 08:55:27;;;;;;;15.30;9.27;;;12.60;97.80;;;;;;5130613;28;20029;-85
2021/04/20 08:58:17;;;;;;;14.73;9.60;;;12.70;97.50;;;;;;5128655;28;20408;-85
2021/04/20 09:01:17;;;;;;;16.23;9.95;;;13.00;97.50;;;;;;5129384;28;20050;-86
2021/04/20 09:03:50;;;;;;;16.77;9.52;;;13.10;97.60;;;;;;5125075;28;20047;-85
2021/04/20 09:06:32;;;;;;;14.52;8.88;;;13.30;97.00;;;;;;5128417;28;20058;-85
2021/04/20 09:09:04;;;;;;;14.38;8.80;;;13.40;97.30;;;;;;5128858;28;20036;-85
2021/04/20 09:11:37;;;;;;;12.40;8.13;;;13.50;96.40;;;;;;5112212;28;20110;-85
2021/04/20 09:14:08;;;;;;;15.25;8.88;;;13.60;97.20;;;;;;5128475;28;20046;-84
2021/04/20 09:16:45;;;;;;;12.38;7.95;;;13.70;97.00;;;;;;5112047;28;20062;-85
2021/04/20 09:19:33;;;;;;;12.65;8.43;;;13.90;95.60;;;;;;5135097;28;20106;-85
2021/04/20 09:22:09;;;;;;;14.23;8.95;;;14.00;95.60;;;;;;5149010;28;20120;-86
2021/04/20 09:24:54;;;;;;;16.52;9.00;;;14.20;93.30;;;;;;5132680;28;20044;-86
2021/04/20 09:27:29;;;;;;;15.63;8.50;;;14.30;94.20;;;;;;5149607;28;20527;-86
2021/04/20 09:30:11;;;;;;;12.23;8.63;;;14.40;94.10;;;;;;5149216;28;20084;-86
2021/04/20 09:32:45;;;;;;;15.65;8.50;;;14.50;93.20;;;;;;5144224;28;20032;-83
2021/04/20 09:35:14;;;;;;;14.25;8.27;;;14.50;92.40;;;;;;5140500;28;20062;-84
2021/04/20 09:37:42;;;;;;;15.23;8.32;;;14.60;91.50;;;;;;5130918;28;20051;-83
2021/04/20 09:40:14;;;;;;;17.65;9.43;;;14.70;92.00;;;;;;5114393;28;20447;-83
2021/04/20 09:42:43;;;;;;;15.77;8.30;;;14.80;91.60;;;;;;5127044;28;20094;-81
2021/04/20 09:45:17;;;;;;;11.80;8.18;;;14.90;90.40;;;;;;5127139;28;20036;-83
2021/04/20 09:47:59;;;;;;;17.83;8.48;;;15.10;88.20;;;;;;5111705;28;20038;-85
2021/04/20 09:50:56;;;;;;;14.25;7.75;;;15.10;84.60;;;;;;5143988;28;20059;-83
2021/04/20 09:53:37;;;;;;;13.05;8.18;;;15.20;82.30;;;;;;5147593;28;20381;-81
2021/04/20 09:56:32;;;;;;;11.40;8.15;;;15.10;81.70;;;;;;5145025;28;20032;-81
2021/04/20 09:59:02;;;;;;;16.27;8.15;;;15.30;83.90;;;;;;5127650;28;20472;-81
2021/04/20 10:02:05;;;;;;;11.90;8.02;;;15.40;84.70;;;;;;5128594;28;20113;-81
2021/04/20 10:04:47;;;;;;;15.80;8.18;;;15.50;82.70;;;;;;5146129;28;20055;-81
2021/04/20 10:07:32;;;;;;;13.65;7.63;;;15.60;83.20;;;;;;5148512;28;20039;-81
2021/04/20 10:10:20;;;;;;;15.32;7.82;;;15.70;83.00;;;;;;5139921;28;20074;-81
2021/04/20 10:12:59;;;;;;;13.18;7.65;;;16.00;81.20;;;;;;5127891;28;20040;-80
2021/04/20 10:15:49;;;;;;;11.73;7.45;;;16.10;78.90;;;;;;5134824;28;20467;-81
2021/04/20 10:18:25;;;;;;;12.32;7.93;;;16.20;79.80;;;;;;5132954;28;20047;-80
2021/04/20 10:21:23;;;;;;;14.48;7.57;;;16.40;78.50;;;;;;5126662;28;20028;-80
2021/04/20 10:24:08;;;;;;;13.70;7.18;;;16.30;75.40;;;;;;5126953;28;20141;-81
2021/04/20 10:26:54;;;;;;;14.10;6.95;;;16.40;76.50;;;;;;5126302;28;20056;-80
2021/04/20 10:29:42;;;;;;;14.48;6.78;;;16.50;76.60;;;;;;5127597;28;20036;-84
2021/04/20 10:32:18;;;;;;;11.98;6.72;;;16.60;75.90;;;;;;5127945;28;20032;-81
2021/04/20 10:34:53;;;;;;;9.95;6.10;;;16.70;74.80;;;;;;5126580;28;20039;-82
2021/04/20 10:37:30;;;;;;;11.50;6.43;;;16.90;75.50;;;;;;5127013;28;20032;-84
2021/04/20 10:39:59;;;;;;;10.00;5.72;;;17.00;70.50;;;;;;5127014;28;20036;-82
2021/04/20 10:42:29;;;;;;;10.45;5.18;;;17.00;69.50;;;;;;5131370;28;20479;-81
2021/04/20 10:44:56;;;;;;;9.55;5.90;;;17.10;68.20;;;;;;5135676;28;20051;-81
2021/04/20 10:47:25;;;;;;;9.57;5.40;;;17.10;68.20;;;;;;5119878;28;20523;-81
2021/04/20 10:50:00;;;;;;;8.20;5.22;;;17.20;68.20;;;;;;5136621;28;20028;-81
2021/04/20 10:52:33;;;;;;;9.27;5.22;;;17.30;67.70;;;;;;5137531;28;20039;-81
2021/04/20 10:55:08;;;;;;;7.93;4.03;;;17.30;65.10;;;;;;5146861;28;20395;-80
2021/04/20 10:57:38;;;;;;;8.48;4.28;;;17.40;62.40;;;;;;5133727;28;20077;-80
2021/04/20 11:00:07;;;;;;;7.63;4.10;;;17.50;61.90;;;;;;5120535;28;20050;-80
2021/04/20 11:02:41;;;;;;;8.50;3.70;;;17.60;60.90;;;;;;5114367;28;20063;-81
2021/04/20 11:05:10;;;;;;;11.65;4.47;;;17.70;60.60;;;;;;5132805;28;20066;-83
2021/04/20 11:07:42;;;;;;;7.88;4.10;;;17.70;56.50;;;;;;5133104;28;20024;-85
2021/04/20 11:10:11;;;;;;;7.72;4.10;;;17.70;58.40;;;;;;5126986;28;20115;-85
2021/04/20 11:12:45;;;;;;;8.88;4.53;;;17.70;59.10;;;;;;5110208;28;20114;-87
2021/04/20 11:15:27;;;;;;;9.45;3.92;;;17.80;57.90;;;;;;5129337;28;20116;-81
2021/04/20 11:17:54;;;;;;;10.68;3.03;;;17.80;56.50;;;;;;5109166;28;20449;-79
2021/04/20 11:20:37;;;;;;;7.28;2.60;;;17.90;53.90;;;;;;5143632;28;20130;-81
2021/04/20 11:23:14;;;;;;;6.00;2.80;;;17.90;54.30;;;;;;5148455;28;20077;-83
2021/04/20 11:25:51;;;;;;;8.00;2.45;;;18.00;53.30;;;;;;5146677;28;20150;-80
2021/04/20 11:28:20;;;;;;;6.15;2.45;;;18.10;53.40;;;;;;5146330;28;20036;-83
2021/04/20 11:30:59;;;;;;;6.88;2.70;;;18.00;52.10;;;;;;5148387;28;20035;-81
2021/04/20 11:33:39;;;;;;;7.32;2.78;;;18.10;52.00;;;;;;5146511;28;20123;-83
2021/04/20 11:36:19;;;;;;;6.95;2.90;;;18.20;52.90;;;;;;5146928;28;20038;-84
2021/04/20 11:38:50;;;;;;;9.40;2.90;;;18.30;54.20;;;;;;5147058;28;20036;-85
2021/04/20 11:41:20;;;;;;;5.63;2.55;;;18.30;53.20;;;;;;5146447;28;20051;-81
2021/04/20 11:43:58;;;;;;;7.10;2.80;;;18.30;50.80;;;;;;5146788;28;20059;-80
2021/04/20 11:46:27;;;;;;;6.40;2.40;;;18.30;51.60;;;;;;5146647;28;20132;-81
2021/04/20 11:49:06;;;;;;;6.82;2.85;;;18.30;52.90;;;;;;5142002;28;20066;-82
2021/04/20 11:51:35;;;;;;;8.23;2.50;;;18.40;52.80;;;;;;5135211;28;20038;-82
2021/04/20 11:54:04;;;;;;;5.85;2.78;;;18.40;52.10;;;;;;5146825;28;20440;-84
2021/04/20 11:56:39;;;;;;;5.63;2.67;;;18.40;51.10;;;;;;5129430;28;20039;-85
2021/04/20 11:59:07;;;;;;;5.68;2.80;;;18.50;50.90;;;;;;5104457;28;20126;-85
2021/04/20 12:01:35;;;;;;;8.27;2.80;;;18.50;51.60;;;;;;5127102;28;20040;-85
2021/04/20 12:04:04;;;;;;;5.97;2.92;;;18.60;51.90;;;;;;5126298;28;20037;-85
2021/04/20 12:06:40;;;;;;;4.00;2.17;;;18.60;52.40;;;;;;5126848;28;20032;-85
2021/04/20 12:09:08;;;;;;;5.95;2.60;;;18.60;50.70;;;;;;5145081;28;20437;-85
2021/04/20 12:11:36;;;;;;;7.63;3.13;;;18.50;52.30;;;;;;5129498;28;20090;-85
2021/04/20 12:14:05;;;;;;;6.45;2.40;;;18.60;50.80;;;;;;5124173;28;20054;-85
2021/04/20 12:16:36;;;;;;;5.65;2.60;;;18.60;50.30;;;;;;5149570;28;20039;-85
2021/04/20 12:19:07;;;;;;;6.15;1.90;;;18.60;49.20;;;;;;5137359;28;20031;-85
2021/04/20 12:21:39;;;;;;;6.80;2.60;;;18.60;49.90;;;;;;5132809;28;20051;-85
2021/04/20 12:24:10;;;;;;;5.10;2.25;;;18.70;49.50;;;;;;5129737;28;20101;-86
2021/04/20 12:26:37;;;;;;;6.53;2.42;;;18.60;49.40;;;;;;5095779;28;20079;-86
2021/04/20 12:29:11;;;;;;;6.20;2.03;;;18.70;49.70;;;;;;5112372;28;20734;-85
2021/04/20 12:31:38;;;;;;;4.97;2.05;;;18.70;48.00;;;;;;5128935;28;20051;-85
2021/04/20 12:34:06;;;;;;;11.10;2.53;;;18.70;48.40;;;;;;5129409;28;20070;-86
2021/04/20 12:36:41;;;;;;;5.88;2.58;;;18.70;48.70;;;;;;5130577;28;20043;-88
2021/04/20 12:39:11;;;;;;;7.65;2.70;;;18.60;47.60;;;;;;5131068;28;20035;-87
2021/04/20 12:41:40;;;;;;;9.93;2.60;;;18.60;48.80;;;;;;5128442;28;20032;-81
2021/04/20 12:44:13;;;;;;;7.25;2.45;;;18.60;48.90;;;;;;5147532;28;20114;-82
2021/04/20 12:46:41;;;;;;;7.28;3.08;;;18.60;49.20;;;;;;5148940;28;20073;-88
2021/04/20 12:49:09;;;;;;;6.95;2.53;;;18.70;48.70;;;;;;5143884;28;20082;-86
2021/04/20 12:51:42;;;;;;;7.18;2.85;;;18.60;49.20;;;;;;5095240;28;20075;-85
2021/04/20 12:54:11;;;;;;;4.72;2.60;;;18.60;48.50;;;;;;5111822;28;20076;-79
2021/04/20 12:56:41;;;;;;;7.15;3.03;;;18.60;49.10;;;;;;5129348;28;20349;-80
2021/04/20 12:59:20;;;;;;;6.22;2.83;;;18.50;48.90;;;;;;5128492;28;20036;-81
2021/04/20 13:01:53;;;;;;;5.57;2.97;;;18.60;49.40;;;;;;5129681;28;20040;-81
2021/04/20 13:04:34;;;;;;;7.05;3.35;;;18.60;49.40;;;;;;5128538;28;20457;-82
2021/04/20 13:07:03;;;;;;;6.82;3.58;;;18.50;48.90;;;;;;5129865;28;20058;-79
2021/04/20 13:09:34;;;;;;;7.80;3.50;;;18.50;49.00;;;;;;5128872;28;20036;-80